CYZS

Coral Harbour Airport

Coral Harbour, Canada
TAF AMD CYZS 212013Z 2120/2207 08020KT P6SM FEW020 BKN070 TEMPO 2120/2207 5SM -SN BR SCT020 OVC050 BECMG 2123/2201 04015KT RMK NXT FCST BY 220100Z
Issued Valid From Valid To
Sep-21 @ 20:13 UTC
(7 hours ago)
Sep-21 @ 20:00 UTC
(7 hours ago)
Sep-22 @ 07:00 UTC
(in 4 hours)
to
to
to
TAF AMD CYZS 212013Z 2120/2207 08020KT P6SM FEW020 BKN070 TEMPO 2120/2207 5SM -SN BR SCT020 OVC050 BECMG 2123/2201 04015KT RMK NXT FCST BY 220100Z
Issued Sep-21 @ 20:13 UTC
(7 hours ago)
Valid From Sep-21 @ 20:00 UTC
(7 hours ago)
Valid To Sep-22 @ 07:00 UTC
(in 4 hours)
-
-
-